sensor_id;sensor_type;location;lat;lon;timestamp;pressure;altitude;pressure_sealevel;temperature;humidity
28927;BME280;16038;47.692;9.400;2023-05-24T00:01:56;96713.69;;;14.14;100.00
28927;BME280;16038;47.692;9.400;2023-05-24T00:04:22;96716.81;;;14.05;100.00
28927;BME280;16038;47.692;9.400;2023-05-24T00:06:50;96710.09;;;13.92;100.00
28927;BME280;16038;47.692;9.400;2023-05-24T00:09:15;96708.16;;;14.03;100.00
28927;BME280;16038;47.692;9.400;2023-05-24T00:11:41;96707.75;;;13.98;100.00
28927;BME280;16038;47.692;9.400;2023-05-24T00:14:06;96695.47;;;13.81;100.00
28927;BME280;16038;47.692;9.400;2023-05-24T00:16:31;96695.88;;;13.83;100.00
28927;BME280;16038;47.692;9.400;2023-05-24T00:18:57;96690.00;;;13.88;100.00
28927;BME280;16038;47.692;9.400;2023-05-24T00:21:23;96689.66;;;14.00;100.00
28927;BME280;16038;47.692;9.400;2023-05-24T00:23:49;96691.56;;;13.85;100.00
28927;BME280;16038;47.692;9.400;2023-05-24T00:26:16;96693.09;;;13.75;100.00
28927;BME280;16038;47.692;9.400;2023-05-24T00:28:41;96689.56;;;13.75;100.00
28927;BME280;16038;47.692;9.400;2023-05-24T00:31:07;96689.19;;;13.80;100.00
28927;BME280;16038;47.692;9.400;2023-05-24T00:33:32;96686.47;;;13.87;100.00
28927;BME280;16038;47.692;9.400;2023-05-24T00:35:58;96692.00;;;13.94;100.00
28927;BME280;16038;47.692;9.400;2023-05-24T00:38:24;96691.16;;;13.76;100.00
28927;BME280;16038;47.692;9.400;2023-05-24T00:40:50;96682.88;;;13.69;100.00
28927;BME280;16038;47.692;9.400;2023-05-24T00:43:15;96686.34;;;13.55;100.00
28927;BME280;16038;47.692;9.400;2023-05-24T00:45:41;96683.66;;;13.69;100.00
28927;BME280;16038;47.692;9.400;2023-05-24T00:48:08;96691.88;;;13.62;100.00
28927;BME280;16038;47.692;9.400;2023-05-24T00:50:34;96691.56;;;13.82;100.00
28927;BME280;16038;47.692;9.400;2023-05-24T00:53:02;96688.34;;;13.65;100.00
28927;BME280;16038;47.692;9.400;2023-05-24T00:55:28;96684.44;;;13.70;100.00
28927;BME280;16038;47.692;9.400;2023-05-24T00:57:56;96689.91;;;13.66;100.00
28927;BME280;16038;47.692;9.400;2023-05-24T01:00:22;96691.47;;;13.56;100.00
28927;BME280;16038;47.692;9.400;2023-05-24T01:02:49;96685.53;;;13.47;100.00
28927;BME280;16038;47.692;9.400;2023-05-24T01:05:16;96687.50;;;13.54;100.00
28927;BME280;16038;47.692;9.400;2023-05-24T01:08:05;96678.41;;;13.39;100.00
28927;BME280;16038;47.692;9.400;2023-05-24T01:10:42;96679.19;;;13.43;100.00
28927;BME280;16038;47.692;9.400;2023-05-24T01:13:26;96682.34;;;13.38;100.00
28927;BME280;16038;47.692;9.400;2023-05-24T01:16:07;96676.09;;;13.52;100.00
28927;BME280;16038;47.692;9.400;2023-05-24T01:18:39;96675.28;;;13.41;100.00
28927;BME280;16038;47.692;9.400;2023-05-24T01:26:53;96646.03;;;13.14;100.00
28927;BME280;16038;47.692;9.400;2023-05-24T01:29:18;96659.38;;;13.16;100.00
28927;BME280;16038;47.692;9.400;2023-05-24T01:31:45;96664.13;;;13.19;100.00
28927;BME280;16038;47.692;9.400;2023-05-24T01:34:10;96666.47;;;13.17;100.00
28927;BME280;16038;47.692;9.400;2023-05-24T01:36:36;96667.69;;;13.23;100.00
28927;BME280;16038;47.692;9.400;2023-05-24T01:39:01;96659.41;;;13.19;100.00
28927;BME280;16038;47.692;9.400;2023-05-24T01:41:48;96664.16;;;13.26;100.00
28927;BME280;16038;47.692;9.400;2023-05-24T01:44:28;96653.47;;;13.10;100.00
28927;BME280;16038;47.692;9.400;2023-05-24T01:47:09;96660.13;;;13.02;100.00
28927;BME280;16038;47.692;9.400;2023-05-24T01:49:39;96661.69;;;13.07;100.00
28927;BME280;16038;47.692;9.400;2023-05-24T01:52:18;96662.44;;;12.96;100.00
28927;BME280;16038;47.692;9.400;2023-05-24T01:54:50;96659.72;;;13.00;100.00
28927;BME280;16038;47.692;9.400;2023-05-24T01:57:18;96664.75;;;12.94;100.00
28927;BME280;16038;47.692;9.400;2023-05-24T01:59:44;96663.59;;;12.95;100.00
28927;BME280;16038;47.692;9.400;2023-05-24T02:02:10;96671.03;;;12.88;100.00
28927;BME280;16038;47.692;9.400;2023-05-24T02:04:36;96671.41;;;12.86;100.00
28927;BME280;16038;47.692;9.400;2023-05-24T02:07:02;96673.75;;;12.84;100.00
28927;BME280;16038;47.692;9.400;2023-05-24T02:09:27;96675.44;;;13.07;100.00
28927;BME280;16038;47.692;9.400;2023-05-24T02:11:53;96678.53;;;12.98;100.00
28927;BME280;16038;47.692;9.400;2023-05-24T02:14:18;96681.25;;;12.94;100.00
28927;BME280;16038;47.692;9.400;2023-05-24T02:16:44;96679.75;;;13.00;100.00
28927;BME280;16038;47.692;9.400;2023-05-24T02:19:11;96678.53;;;13.01;100.00
28927;BME280;16038;47.692;9.400;2023-05-24T02:21:37;96678.06;;;12.85;100.00
28927;BME280;16038;47.692;9.400;2023-05-24T02:24:02;96672.59;;;12.92;100.00
28927;BME280;16038;47.692;9.400;2023-05-24T02:26:28;96684.78;;;12.91;100.00
28927;BME280;16038;47.692;9.400;2023-05-24T02:28:53;96683.94;;;12.87;100.00
28927;BME280;16038;47.692;9.400;2023-05-24T02:31:19;96688.75;;;12.97;100.00
28927;BME280;16038;47.692;9.400;2023-05-24T02:33:45;96674.91;;;12.83;100.00
28927;BME280;16038;47.692;9.400;2023-05-24T02:36:11;96683.09;;;12.76;100.00
28927;BME280;16038;47.692;9.400;2023-05-24T02:38:37;96675.53;;;12.66;100.00
28927;BME280;16038;47.692;9.400;2023-05-24T02:41:02;96683.22;;;12.94;100.00
28927;BME280;16038;47.692;9.400;2023-05-24T02:43:27;96673.38;;;12.89;100.00
28927;BME280;16038;47.692;9.400;2023-05-24T02:45:53;96683.78;;;12.66;100.00
28927;BME280;16038;47.692;9.400;2023-05-24T02:48:18;96686.25;;;12.78;100.00
28927;BME280;16038;47.692;9.400;2023-05-24T02:50:44;96685.13;;;12.86;100.00
28927;BME280;16038;47.692;9.400;2023-05-24T02:53:09;96673.97;;;12.65;100.00
28927;BME280;16038;47.692;9.400;2023-05-24T02:55:34;96676.66;;;12.54;100.00
28927;BME280;16038;47.692;9.400;2023-05-24T02:58:00;96680.16;;;12.54;100.00
28927;BME280;16038;47.692;9.400;2023-05-24T03:00:25;96672.41;;;12.67;100.00
28927;BME280;16038;47.692;9.400;2023-05-24T03:02:51;96660.59;;;12.59;100.00
28927;BME280;16038;47.692;9.400;2023-05-24T03:05:16;96663.63;;;12.47;100.00
28927;BME280;16038;47.692;9.400;2023-05-24T03:07:42;96663.28;;;12.52;100.00
28927;BME280;16038;47.692;9.400;2023-05-24T03:10:08;96662.50;;;12.52;100.00
28927;BME280;16038;47.692;9.400;2023-05-24T03:12:34;96668.31;;;12.43;100.00
28927;BME280;16038;47.692;9.400;2023-05-24T03:14:59;96659.38;;;12.53;100.00
28927;BME280;16038;47.692;9.400;2023-05-24T03:17:25;96653.78;;;12.39;100.00
28927;BME280;16038;47.692;9.400;2023-05-24T03:19:50;96661.19;;;12.38;100.00
28927;BME280;16038;47.692;9.400;2023-05-24T03:22:17;96647.03;;;12.33;100.00
28927;BME280;16038;47.692;9.400;2023-05-24T03:24:42;96655.34;;;12.40;100.00
28927;BME280;16038;47.692;9.400;2023-05-24T03:27:08;96650.22;;;12.38;100.00
28927;BME280;16038;47.692;9.400;2023-05-24T03:29:33;96648.28;;;12.39;100.00
28927;BME280;16038;47.692;9.400;2023-05-24T03:31:59;96646.97;;;12.26;100.00
28927;BME280;16038;47.692;9.400;2023-05-24T03:34:24;96652.13;;;12.31;100.00
28927;BME280;16038;47.692;9.400;2023-05-24T03:36:49;96661.41;;;12.19;100.00
28927;BME280;16038;47.692;9.400;2023-05-24T03:39:15;96658.41;;;12.35;100.00
28927;BME280;16038;47.692;9.400;2023-05-24T03:41:40;96666.94;;;12.22;100.00
28927;BME280;16038;47.692;9.400;2023-05-24T03:44:06;96661.13;;;12.31;100.00
28927;BME280;16038;47.692;9.400;2023-05-24T03:46:31;96665.47;;;12.32;100.00
28927;BME280;16038;47.692;9.400;2023-05-24T03:48:56;96669.66;;;12.63;100.00
28927;BME280;16038;47.692;9.400;2023-05-24T03:51:22;96673.78;;;12.39;100.00
28927;BME280;16038;47.692;9.400;2023-05-24T03:53:55;96676.09;;;12.34;100.00
28927;BME280;16038;47.692;9.400;2023-05-24T03:56:21;96674.97;;;12.42;100.00
28927;BME280;16038;47.692;9.400;2023-05-24T03:58:46;96684.97;;;12.65;100.00
28927;BME280;16038;47.692;9.400;2023-05-24T04:01:12;96686.00;;;12.49;100.00
28927;BME280;16038;47.692;9.400;2023-05-24T04:03:37;96684.88;;;12.54;100.00
28927;BME280;16038;47.692;9.400;2023-05-24T04:06:03;96680.59;;;12.56;100.00
28927;BME280;16038;47.692;9.400;2023-05-24T04:08:28;96684.97;;;12.65;100.00
28927;BME280;16038;47.692;9.400;2023-05-24T04:10:53;96681.72;;;12.52;100.00
28927;BME280;16038;47.692;9.400;2023-05-24T04:13:20;96698.25;;;12.55;100.00
28927;BME280;16038;47.692;9.400;2023-05-24T04:15:46;96694.47;;;12.74;100.00
28927;BME280;16038;47.692;9.400;2023-05-24T04:18:11;96688.31;;;12.92;100.00
28927;BME280;16038;47.692;9.400;2023-05-24T04:20:37;96690.34;;;12.98;100.00
28927;BME280;16038;47.692;9.400;2023-05-24T04:23:02;96692.56;;;12.78;100.00
28927;BME280;16038;47.692;9.400;2023-05-24T04:25:28;96700.81;;;12.82;100.00
28927;BME280;16038;47.692;9.400;2023-05-24T04:27:54;96691.59;;;12.60;100.00
28927;BME280;16038;47.692;9.400;2023-05-24T04:30:20;96704.47;;;12.49;100.00
28927;BME280;16038;47.692;9.400;2023-05-24T04:32:47;96696.47;;;12.77;100.00
28927;BME280;16038;47.692;9.400;2023-05-24T04:35:13;96695.22;;;12.68;100.00
28927;BME280;16038;47.692;9.400;2023-05-24T04:37:38;96697.28;;;12.85;100.00
28927;BME280;16038;47.692;9.400;2023-05-24T04:40:08;96705.16;;;12.87;100.00
28927;BME280;16038;47.692;9.400;2023-05-24T04:42:34;96705.25;;;12.97;100.00
28927;BME280;16038;47.692;9.400;2023-05-24T04:45:00;96710.22;;;12.81;100.00
28927;BME280;16038;47.692;9.400;2023-05-24T04:47:25;96711.09;;;12.92;100.00
28927;BME280;16038;47.692;9.400;2023-05-24T04:49:51;96713.66;;;12.71;100.00
28927;BME280;16038;47.692;9.400;2023-05-24T04:52:17;96720.31;;;12.66;100.00
28927;BME280;16038;47.692;9.400;2023-05-24T04:54:42;96722.34;;;12.76;100.00
28927;BME280;16038;47.692;9.400;2023-05-24T04:57:08;96729.69;;;12.61;100.00
28927;BME280;16038;47.692;9.400;2023-05-24T04:59:33;96734.59;;;12.82;100.00
28927;BME280;16038;47.692;9.400;2023-05-24T05:01:59;96744.94;;;13.00;100.00
28927;BME280;16038;47.692;9.400;2023-05-24T05:04:24;96756.34;;;12.57;100.00
28927;BME280;16038;47.692;9.400;2023-05-24T05:06:50;96748.66;;;12.33;100.00
28927;BME280;16038;47.692;9.400;2023-05-24T05:09:16;96759.00;;;11.79;100.00
28927;BME280;16038;47.692;9.400;2023-05-24T05:11:44;96763.00;;;11.85;100.00
28927;BME280;16038;47.692;9.400;2023-05-24T05:14:10;96761.47;;;12.21;100.00
28927;BME280;16038;47.692;9.400;2023-05-24T05:16:36;96764.59;;;12.20;100.00
28927;BME280;16038;47.692;9.400;2023-05-24T05:19:02;96759.03;;;11.52;100.00
28927;BME280;16038;47.692;9.400;2023-05-24T05:21:31;96754.63;;;11.17;100.00
28927;BME280;16038;47.692;9.400;2023-05-24T05:24:01;96755.22;;;11.30;100.00
28927;BME280;16038;47.692;9.400;2023-05-24T05:26:27;96757.94;;;11.03;100.00
28927;BME280;16038;47.692;9.400;2023-05-24T05:28:53;96764.59;;;11.02;100.00
28927;BME280;16038;47.692;9.400;2023-05-24T05:31:22;96758.47;;;10.86;100.00
28927;BME280;16038;47.692;9.400;2023-05-24T05:33:47;96754.72;;;10.98;100.00
28927;BME280;16038;47.692;9.400;2023-05-24T05:36:13;96756.38;;;11.02;100.00
28927;BME280;16038;47.692;9.400;2023-05-24T05:38:39;96746.28;;;10.83;100.00
28927;BME280;16038;47.692;9.400;2023-05-24T05:41:04;96748.88;;;10.99;100.00
28927;BME280;16038;47.692;9.400;2023-05-24T05:43:30;96745.22;;;11.15;100.00
28927;BME280;16038;47.692;9.400;2023-05-24T05:45:55;96735.78;;;10.89;100.00
28927;BME280;16038;47.692;9.400;2023-05-24T05:48:21;96739.00;;;10.95;100.00
28927;BME280;16038;47.692;9.400;2023-05-24T05:50:46;96734.88;;;11.04;100.00
28927;BME280;16038;47.692;9.400;2023-05-24T05:53:14;96744.88;;;10.93;100.00
28927;BME280;16038;47.692;9.400;2023-05-24T05:55:40;96742.97;;;10.97;100.00
28927;BME280;16038;47.692;9.400;2023-05-24T05:58:05;96750.91;;;11.02;100.00
28927;BME280;16038;47.692;9.400;2023-05-24T06:00:31;96747.75;;;10.77;100.00
28927;BME280;16038;47.692;9.400;2023-05-24T06:02:56;96752.63;;;10.64;100.00
28927;BME280;16038;47.692;9.400;2023-05-24T06:05:21;96745.19;;;10.88;100.00
28927;BME280;16038;47.692;9.400;2023-05-24T06:07:47;96741.97;;;11.09;100.00
28927;BME280;16038;47.692;9.400;2023-05-24T06:10:12;96747.28;;;10.98;100.00
28927;BME280;16038;47.692;9.400;2023-05-24T06:12:38;96738.78;;;10.80;100.00
28927;BME280;16038;47.692;9.400;2023-05-24T06:15:05;96747.28;;;10.98;100.00
28927;BME280;16038;47.692;9.400;2023-05-24T06:17:32;96739.63;;;11.07;100.00
28927;BME280;16038;47.692;9.400;2023-05-24T06:19:58;96736.03;;;10.80;100.00
28927;BME280;16038;47.692;9.400;2023-05-24T06:22:24;96745.81;;;10.78;100.00
28927;BME280;16038;47.692;9.400;2023-05-24T06:24:52;96736.03;;;10.54;100.00
28927;BME280;16038;47.692;9.400;2023-05-24T06:27:17;96740.81;;;10.60;100.00
28927;BME280;16038;47.692;9.400;2023-05-24T06:29:43;96740.81;;;10.60;100.00
28927;BME280;16038;47.692;9.400;2023-05-24T06:32:08;96741.91;;;10.79;100.00
28927;BME280;16038;47.692;9.400;2023-05-24T06:34:34;96735.38;;;10.64;100.00
28927;BME280;16038;47.692;9.400;2023-05-24T06:36:59;96737.94;;;10.53;100.00
28927;BME280;16038;47.692;9.400;2023-05-24T06:39:26;96744.78;;;10.86;100.00
28927;BME280;16038;47.692;9.400;2023-05-24T06:41:52;96746.75;;;10.89;100.00
28927;BME280;16038;47.692;9.400;2023-05-24T06:44:18;96738.72;;;10.77;100.00
28927;BME280;16038;47.692;9.400;2023-05-24T06:46:43;96744.91;;;10.70;100.00
28927;BME280;16038;47.692;9.400;2023-05-24T06:49:09;96746.78;;;10.66;100.00
28927;BME280;16038;47.692;9.400;2023-05-24T06:51:34;96749.09;;;10.64;100.00
28927;BME280;16038;47.692;9.400;2023-05-24T06:54:00;96758.13;;;10.91;100.00
28927;BME280;16038;47.692;9.400;2023-05-24T06:56:26;96764.88;;;11.20;100.00
28927;BME280;16038;47.692;9.400;2023-05-24T06:58:53;96764.47;;;11.48;100.00
28927;BME280;16038;47.692;9.400;2023-05-24T07:01:18;96768.84;;;11.53;100.00
28927;BME280;16038;47.692;9.400;2023-05-24T07:03:43;96779.19;;;11.10;100.00
28927;BME280;16038;47.692;9.400;2023-05-24T07:06:09;96777.75;;;11.20;100.00
28927;BME280;16038;47.692;9.400;2023-05-24T07:08:38;96783.94;;;11.13;100.00
28927;BME280;16038;47.692;9.400;2023-05-24T07:11:04;96784.09;;;10.97;100.00
28927;BME280;16038;47.692;9.400;2023-05-24T07:13:30;96782.50;;;10.73;100.00
28927;BME280;16038;47.692;9.400;2023-05-24T07:15:56;96789.00;;;11.11;100.00
28927;BME280;16038;47.692;9.400;2023-05-24T07:18:21;96787.28;;;11.53;100.00
28927;BME280;16038;47.692;9.400;2023-05-24T07:20:46;96798.97;;;11.50;100.00
28927;BME280;16038;47.692;9.400;2023-05-24T07:23:12;96790.53;;;11.62;100.00
28927;BME280;16038;47.692;9.400;2023-05-24T07:25:38;96795.44;;;11.22;100.00
28927;BME280;16038;47.692;9.400;2023-05-24T07:28:03;96793.78;;;11.18;100.00
28927;BME280;16038;47.692;9.400;2023-05-24T07:30:29;96793.16;;;11.28;100.00
28927;BME280;16038;47.692;9.400;2023-05-24T07:32:54;96795.41;;;10.96;100.00
28927;BME280;16038;47.692;9.400;2023-05-24T07:35:20;96794.97;;;11.17;100.00
28927;BME280;16038;47.692;9.400;2023-05-24T07:37:46;96798.59;;;11.24;100.00
28927;BME280;16038;47.692;9.400;2023-05-24T07:40:12;96797.16;;;11.61;100.00
28927;BME280;16038;47.692;9.400;2023-05-24T07:42:38;96800.44;;;12.00;100.00
28927;BME280;16038;47.692;9.400;2023-05-24T07:45:05;96803.50;;;12.26;100.00
28927;BME280;16038;47.692;9.400;2023-05-24T07:47:31;96806.19;;;12.22;100.00
28927;BME280;16038;47.692;9.400;2023-05-24T07:49:56;96798.66;;;12.15;100.00
28927;BME280;16038;47.692;9.400;2023-05-24T07:52:22;96796.50;;;12.32;100.00
28927;BME280;16038;47.692;9.400;2023-05-24T07:54:48;96803.31;;;12.45;100.00
28927;BME280;16038;47.692;9.400;2023-05-24T07:57:14;96798.34;;;12.58;100.00
28927;BME280;16038;47.692;9.400;2023-05-24T07:59:39;96799.06;;;12.51;100.00
28927;BME280;16038;47.692;9.400;2023-05-24T08:02:05;96801.44;;;12.19;100.00
28927;BME280;16038;47.692;9.400;2023-05-24T08:04:31;96795.53;;;11.86;100.00
28927;BME280;16038;47.692;9.400;2023-05-24T08:06:58;96791.78;;;11.68;100.00
28927;BME280;16038;47.692;9.400;2023-05-24T08:09:26;96789.25;;;11.86;100.00
28927;BME280;16038;47.692;9.400;2023-05-24T08:11:52;96798.28;;;11.56;100.00
28927;BME280;16038;47.692;9.400;2023-05-24T08:14:17;96803.47;;;11.35;100.00
28927;BME280;16038;47.692;9.400;2023-05-24T08:16:42;96797.97;;;11.61;100.00
28927;BME280;16038;47.692;9.400;2023-05-24T08:19:08;96804.28;;;11.65;100.00
28927;BME280;16038;47.692;9.400;2023-05-24T08:21:33;96814.38;;;11.31;100.00
28927;BME280;16038;47.692;9.400;2023-05-24T08:23:58;96810.41;;;11.28;100.00
28927;BME280;16038;47.692;9.400;2023-05-24T08:26:24;96804.09;;;11.24;100.00
28927;BME280;16038;47.692;9.400;2023-05-24T08:28:50;96819.09;;;11.07;100.00
28927;BME280;16038;47.692;9.400;2023-05-24T08:31:16;96808.69;;;11.17;100.00
28927;BME280;16038;47.692;9.400;2023-05-24T08:33:42;96811.31;;;11.36;100.00
28927;BME280;16038;47.692;9.400;2023-05-24T08:36:07;96812.28;;;11.47;100.00
28927;BME280;16038;47.692;9.400;2023-05-24T08:38:33;96809.41;;;11.67;100.00
28927;BME280;16038;47.692;9.400;2023-05-24T08:40:58;96815.13;;;11.85;100.00
28927;BME280;16038;47.692;9.400;2023-05-24T08:43:25;96817.59;;;12.24;100.00
28927;BME280;16038;47.692;9.400;2023-05-24T08:45:51;96821.84;;;12.52;100.00
28927;BME280;16038;47.692;9.400;2023-05-24T08:48:18;96820.94;;;12.81;100.00
28927;BME280;16038;47.692;9.400;2023-05-24T08:50:44;96829.00;;;12.63;100.00
28927;BME280;16038;47.692;9.400;2023-05-24T08:53:10;96826.19;;;12.56;100.00
28927;BME280;16038;47.692;9.400;2023-05-24T08:55:37;96827.28;;;12.48;100.00
28927;BME280;16038;47.692;9.400;2023-05-24T08:58:02;96831.59;;;12.49;100.00
28927;BME280;16038;47.692;9.400;2023-05-24T09:00:28;96827.59;;;12.39;100.00
28927;BME280;16038;47.692;9.400;2023-05-24T09:02:56;96825.50;;;12.29;100.00
28927;BME280;16038;47.692;9.400;2023-05-24T09:05:21;96823.44;;;12.56;100.00
28927;BME280;16038;47.692;9.400;2023-05-24T09:07:48;96823.06;;;11.90;100.00
28927;BME280;16038;47.692;9.400;2023-05-24T09:10:15;96837.28;;;11.96;100.00
28927;BME280;16038;47.692;9.400;2023-05-24T09:12:44;96831.38;;;12.28;100.00
28927;BME280;16038;47.692;9.400;2023-05-24T09:15:11;96829.09;;;12.71;100.00
28927;BME280;16038;47.692;9.400;2023-05-24T09:17:37;96832.19;;;13.10;100.00
28927;BME280;16038;47.692;9.400;2023-05-24T09:20:05;96836.16;;;13.65;100.00
28927;BME280;16038;47.692;9.400;2023-05-24T09:22:34;96835.84;;;13.77;100.00
28927;BME280;16038;47.692;9.400;2023-05-24T09:25:04;96839.13;;;14.01;99.18
28927;BME280;16038;47.692;9.400;2023-05-24T09:27:31;96835.41;;;13.68;95.90
28927;BME280;16038;47.692;9.400;2023-05-24T09:29:58;96839.38;;;13.74;99.28
28927;BME280;16038;47.692;9.400;2023-05-24T09:32:24;96840.25;;;12.89;100.00
28927;BME280;16038;47.692;9.400;2023-05-24T09:34:53;96838.38;;;12.55;100.00
28927;BME280;16038;47.692;9.400;2023-05-24T09:37:21;96833.50;;;13.24;100.00
28927;BME280;16038;47.692;9.400;2023-05-24T09:39:48;96837.34;;;13.60;100.00
28927;BME280;16038;47.692;9.400;2023-05-24T09:42:23;96835.72;;;14.29;99.68
28927;BME280;16038;47.692;9.400;2023-05-24T09:45:06;96839.00;;;14.63;95.26
28927;BME280;16038;47.692;9.400;2023-05-24T09:47:35;96842.97;;;14.69;89.95
28927;BME280;16038;47.692;9.400;2023-05-24T09:50:05;96844.50;;;14.63;92.54
28927;BME280;16038;47.692;9.400;2023-05-24T09:52:36;96841.94;;;14.11;91.44
28927;BME280;16038;47.692;9.400;2023-05-24T09:57:36;96829.16;;;13.71;97.86
28927;BME280;16038;47.692;9.400;2023-05-24T10:00:06;96842.31;;;13.40;97.78
28927;BME280;16038;47.692;9.400;2023-05-24T10:02:38;96838.09;;;13.57;98.87
28927;BME280;16038;47.692;9.400;2023-05-24T10:05:04;96842.50;;;13.20;96.76
28927;BME280;16038;47.692;9.400;2023-05-24T10:07:32;96837.13;;;13.94;94.42
28927;BME280;16038;47.692;9.400;2023-05-24T10:09:59;96839.31;;;13.63;94.58
28927;BME280;16038;47.692;9.400;2023-05-24T10:12:25;96844.25;;;12.95;96.66
28927;BME280;16038;47.692;9.400;2023-05-24T10:14:52;96840.19;;;13.26;97.68
28927;BME280;16038;47.692;9.400;2023-05-24T10:17:21;96845.88;;;13.03;99.97
28927;BME280;16038;47.692;9.400;2023-05-24T10:19:47;96842.03;;;13.11;99.32
28927;BME280;16038;47.692;9.400;2023-05-24T10:22:13;96846.47;;;13.27;97.16
28927;BME280;16038;47.692;9.400;2023-05-24T10:24:45;96848.88;;;13.84;96.42
28927;BME280;16038;47.692;9.400;2023-05-24T10:27:13;96848.41;;;14.48;95.55
28927;BME280;16038;47.692;9.400;2023-05-24T10:30:13;96853.25;;;15.05;90.42
28927;BME280;16038;47.692;9.400;2023-05-24T10:32:41;96853.28;;;15.16;86.98
28927;BME280;16038;47.692;9.400;2023-05-24T10:35:09;96849.28;;;14.77;84.36
28927;BME280;16038;47.692;9.400;2023-05-24T10:37:39;96857.97;;;14.86;84.56
28927;BME280;16038;47.692;9.400;2023-05-24T10:40:05;96865.13;;;15.13;81.43
28927;BME280;16038;47.692;9.400;2023-05-24T10:42:34;96853.22;;;14.87;84.86
28927;BME280;16038;47.692;9.400;2023-05-24T10:47:45;96858.78;;;15.44;80.38
28927;BME280;16038;47.692;9.400;2023-05-24T10:50:19;96861.16;;;15.67;78.84
28927;BME280;16038;47.692;9.400;2023-05-24T10:52:45;96862.38;;;15.56;76.90
28927;BME280;16038;47.692;9.400;2023-05-24T10:55:10;96861.16;;;15.42;80.40
28927;BME280;16038;47.692;9.400;2023-05-24T10:57:38;96855.25;;;15.04;78.70
28927;BME280;16038;47.692;9.400;2023-05-24T11:02:48;96861.84;;;14.71;82.43
28927;BME280;16038;47.692;9.400;2023-05-24T11:05:14;96860.59;;;14.54;80.96
28927;BME280;16038;47.692;9.400;2023-05-24T11:07:40;96859.50;;;14.62;80.84
28927;BME280;16038;47.692;9.400;2023-05-24T11:10:14;96855.97;;;14.76;79.59
28927;BME280;16038;47.692;9.400;2023-05-24T11:12:41;96843.00;;;14.84;79.02
28927;BME280;16038;47.692;9.400;2023-05-24T11:15:10;96834.75;;;14.95;79.63
28927;BME280;16038;47.692;9.400;2023-05-24T11:20:40;96844.25;;;14.06;80.64
28927;BME280;16038;47.692;9.400;2023-05-24T11:23:07;96846.16;;;14.89;77.98
28927;BME280;16038;47.692;9.400;2023-05-24T11:25:36;96850.53;;;15.26;77.92
28927;BME280;16038;47.692;9.400;2023-05-24T11:28:02;96849.75;;;15.22;77.45
28927;BME280;16038;47.692;9.400;2023-05-24T11:30:31;96845.53;;;14.19;81.21
28927;BME280;16038;47.692;9.400;2023-05-24T11:32:57;96840.09;;;14.41;80.80
28927;BME280;16038;47.692;9.400;2023-05-24T11:35:22;96831.59;;;15.03;78.58
28927;BME280;16038;47.692;9.400;2023-05-24T11:37:52;96834.25;;;14.60;78.29
28927;BME280;16038;47.692;9.400;2023-05-24T11:40:17;96832.56;;;13.53;82.01
28927;BME280;16038;47.692;9.400;2023-05-24T11:42:44;96829.84;;;14.34;83.16
28927;BME280;16038;47.692;9.400;2023-05-24T11:45:11;96832.75;;;14.81;79.83
28927;BME280;16038;47.692;9.400;2023-05-24T11:47:38;96831.88;;;14.55;80.72
28927;BME280;16038;47.692;9.400;2023-05-24T11:50:04;96832.00;;;15.20;77.23
28927;BME280;16038;47.692;9.400;2023-05-24T11:52:31;96823.31;;;15.03;73.09
28927;BME280;16038;47.692;9.400;2023-05-24T11:54:56;96817.00;;;15.57;73.97
28927;BME280;16038;47.692;9.400;2023-05-24T11:57:36;96812.22;;;15.86;71.68
28927;BME280;16038;47.692;9.400;2023-05-24T12:00:05;96818.06;;;16.13;72.42
28927;BME280;16038;47.692;9.400;2023-05-24T12:02:35;96814.19;;;16.77;66.99
28927;BME280;16038;47.692;9.400;2023-05-24T12:05:07;96800.06;;;15.08;70.57
28927;BME280;16038;47.692;9.400;2023-05-24T12:07:38;96799.66;;;15.56;74.21
28927;BME280;16038;47.692;9.400;2023-05-24T12:10:05;96800.06;;;15.12;72.75
28927;BME280;16038;47.692;9.400;2023-05-24T12:12:32;96802.03;;;14.71;76.17
28927;BME280;16038;47.692;9.400;2023-05-24T12:14:58;96803.91;;;16.00;72.89
28927;BME280;16038;47.692;9.400;2023-05-24T12:17:23;96811.88;;;15.26;71.75
28927;BME280;16038;47.692;9.400;2023-05-24T12:19:49;96804.00;;;15.07;72.35
28927;BME280;16038;47.692;9.400;2023-05-24T12:22:15;96805.88;;;16.00;68.82
28927;BME280;16038;47.692;9.400;2023-05-24T12:24:41;96803.78;;;16.29;68.60
28927;BME280;16038;47.692;9.400;2023-05-24T12:27:06;96803.59;;;14.76;72.50
28927;BME280;16038;47.692;9.400;2023-05-24T12:29:34;96809.94;;;14.95;76.97
28927;BME280;16038;47.692;9.400;2023-05-24T12:32:00;96813.09;;;15.00;74.02
28927;BME280;16038;47.692;9.400;2023-05-24T12:34:26;96808.31;;;14.76;74.66
28927;BME280;16038;47.692;9.400;2023-05-24T12:36:53;96818.19;;;14.80;75.14
28927;BME280;16038;47.692;9.400;2023-05-24T12:39:27;96813.84;;;14.76;78.72
28927;BME280;16038;47.692;9.400;2023-05-24T12:41:58;96812.59;;;14.55;77.16
28927;BME280;16038;47.692;9.400;2023-05-24T12:44:35;96805.97;;;14.81;77.33
28927;BME280;16038;47.692;9.400;2023-05-24T12:47:03;96799.66;;;14.88;77.76
28927;BME280;16038;47.692;9.400;2023-05-24T12:49:30;96809.47;;;14.71;77.44
28927;BME280;16038;47.692;9.400;2023-05-24T12:51:55;96802.44;;;15.17;77.09
28927;BME280;16038;47.692;9.400;2023-05-24T12:54:26;96799.25;;;15.61;74.76
28927;BME280;16038;47.692;9.400;2023-05-24T12:56:53;96792.56;;;15.23;74.35
28927;BME280;16038;47.692;9.400;2023-05-24T12:59:19;96788.63;;;14.84;74.47
28927;BME280;16038;47.692;9.400;2023-05-24T13:01:44;96800.84;;;15.05;76.17
28927;BME280;16038;47.692;9.400;2023-05-24T13:04:15;96799.28;;;14.86;76.49
28927;BME280;16038;47.692;9.400;2023-05-24T13:06:41;96796.91;;;14.77;77.08
28927;BME280;16038;47.692;9.400;2023-05-24T13:09:07;96795.72;;;15.14;76.45